sensor_id;sensor_type;location;lat;lon;timestamp;pressure;altitude;pressure_sealevel;temperature;humidity
25392;BME280;13329;48.402;11.718;2024-03-23T00:55:18;95624.03;;;12.10;63.23
25392;BME280;13329;48.402;11.718;2024-03-23T00:57:44;95627.28;;;11.96;64.06
25392;BME280;13329;48.402;11.718;2024-03-23T01:00:09;95625.13;;;12.03;63.07
25392;BME280;13329;48.402;11.718;2024-03-23T01:02:36;95617.06;;;11.79;64.41
25392;BME280;13329;48.402;11.718;2024-03-23T01:05:01;95622.31;;;11.40;65.82
25392;BME280;13329;48.402;11.718;2024-03-23T01:07:26;95614.06;;;11.52;65.49
25392;BME280;13329;48.402;11.718;2024-03-23T01:09:51;95609.34;;;11.39;65.83
25392;BME280;13329;48.402;11.718;2024-03-23T01:12:18;95606.06;;;11.13;66.73
25392;BME280;13329;48.402;11.718;2024-03-23T01:14:43;95602.09;;;11.10;67.02
25392;BME280;13329;48.402;11.718;2024-03-23T01:17:09;95597.63;;;11.05;67.38
25392;BME280;13329;48.402;11.718;2024-03-23T01:19:34;95597.06;;;11.14;67.09
25392;BME280;13329;48.402;11.718;2024-03-23T01:22:00;95597.19;;;10.78;67.86
25392;BME280;13329;48.402;11.718;2024-03-23T01:24:25;95586.69;;;10.58;68.71
25392;BME280;13329;48.402;11.718;2024-03-23T01:26:50;95590.34;;;10.72;68.35
25392;BME280;13329;48.402;11.718;2024-03-23T01:29:16;95581.91;;;10.70;67.96
25392;BME280;13329;48.402;11.718;2024-03-23T01:31:41;95580.84;;;10.66;68.43
25392;BME280;13329;48.402;11.718;2024-03-23T01:34:06;95569.78;;;10.64;68.25
25392;BME280;13329;48.402;11.718;2024-03-23T01:36:32;95571.66;;;10.48;68.32
25392;BME280;13329;48.402;11.718;2024-03-23T01:38:58;95565.31;;;10.59;67.26
25392;BME280;13329;48.402;11.718;2024-03-23T01:41:24;95564.00;;;10.57;68.01
25392;BME280;13329;48.402;11.718;2024-03-23T01:43:50;95566.34;;;10.68;67.67
25392;BME280;13329;48.402;11.718;2024-03-23T01:46:15;95563.41;;;10.75;67.31
25392;BME280;13329;48.402;11.718;2024-03-23T01:48:41;95568.22;;;10.58;68.75
25392;BME280;13329;48.402;11.718;2024-03-23T01:51:07;95561.91;;;10.48;68.91
25392;BME280;13329;48.402;11.718;2024-03-23T01:53:33;95560.34;;;10.42;68.87
25392;BME280;13329;48.402;11.718;2024-03-23T01:55:58;95556.63;;;10.43;68.76
25392;BME280;13329;48.402;11.718;2024-03-23T01:58:23;95558.25;;;10.29;69.75
25392;BME280;13329;48.402;11.718;2024-03-23T02:00:48;95546.38;;;10.37;69.20
25392;BME280;13329;48.402;11.718;2024-03-23T02:03:24;95534.78;;;10.12;69.68
25392;BME280;13329;48.402;11.718;2024-03-23T02:05:51;95538.22;;;10.02;69.99
25392;BME280;13329;48.402;11.718;2024-03-23T02:08:18;95528.72;;;9.86;70.52
25392;BME280;13329;48.402;11.718;2024-03-23T02:10:44;95532.94;;;9.77;71.04
25392;BME280;13329;48.402;11.718;2024-03-23T02:13:09;95528.22;;;9.69;72.30
25392;BME280;13329;48.402;11.718;2024-03-23T02:15:35;95526.88;;;9.82;71.76
25392;BME280;13329;48.402;11.718;2024-03-23T02:18:00;95514.25;;;9.58;71.01
25392;BME280;13329;48.402;11.718;2024-03-23T02:20:25;95518.47;;;9.49;72.07
25392;BME280;13329;48.402;11.718;2024-03-23T02:22:53;95512.94;;;9.50;72.60
25392;BME280;13329;48.402;11.718;2024-03-23T02:25:18;95519.75;;;9.51;72.41
25392;BME280;13329;48.402;11.718;2024-03-23T02:27:43;95523.47;;;9.50;72.37
25392;BME280;13329;48.402;11.718;2024-03-23T02:30:09;95525.03;;;9.51;72.89
25392;BME280;13329;48.402;11.718;2024-03-23T02:32:34;95519.78;;;9.62;71.73
25392;BME280;13329;48.402;11.718;2024-03-23T02:35:00;95510.56;;;9.59;72.19
25392;BME280;13329;48.402;11.718;2024-03-23T02:37:25;95512.94;;;9.50;71.76
25392;BME280;13329;48.402;11.718;2024-03-23T02:39:51;95505.56;;;9.68;71.23
25392;BME280;13329;48.402;11.718;2024-03-23T02:42:16;95500.81;;;9.70;71.30
25392;BME280;13329;48.402;11.718;2024-03-23T02:44:43;95495.03;;;9.73;71.75
25392;BME280;13329;48.402;11.718;2024-03-23T02:47:08;95492.13;;;9.69;70.73
25392;BME280;13329;48.402;11.718;2024-03-23T02:49:33;95492.41;;;9.68;71.07
25392;BME280;13329;48.402;11.718;2024-03-23T02:51:59;95487.91;;;9.68;71.45
25392;BME280;13329;48.402;11.718;2024-03-23T02:54:24;95488.16;;;9.62;72.04
25392;BME280;13329;48.402;11.718;2024-03-23T02:56:49;95488.16;;;9.72;70.96
25392;BME280;13329;48.402;11.718;2024-03-23T02:59:15;95482.13;;;9.51;71.38
25392;BME280;13329;48.402;11.718;2024-03-23T03:01:40;95480.03;;;9.63;71.57
25392;BME280;13329;48.402;11.718;2024-03-23T03:04:05;95480.78;;;9.84;70.42
25392;BME280;13329;48.402;11.718;2024-03-23T03:06:31;95473.38;;;9.86;70.17
25392;BME280;13329;48.402;11.718;2024-03-23T03:08:56;95472.09;;;9.89;69.83
25392;BME280;13329;48.402;11.718;2024-03-23T03:11:21;95473.94;;;9.78;70.79
25392;BME280;13329;48.402;11.718;2024-03-23T03:13:47;95466.84;;;9.79;71.04
25392;BME280;13329;48.402;11.718;2024-03-23T03:16:12;95469.47;;;9.84;70.54
25392;BME280;13329;48.402;11.718;2024-03-23T03:18:38;95466.03;;;9.78;70.87
25392;BME280;13329;48.402;11.718;2024-03-23T03:21:04;95462.34;;;9.74;71.09
25392;BME280;13329;48.402;11.718;2024-03-23T03:23:31;95460.78;;;9.68;71.97
25392;BME280;13329;48.402;11.718;2024-03-23T03:25:56;95451.81;;;9.69;71.22
25392;BME280;13329;48.402;11.718;2024-03-23T03:28:22;95460.50;;;9.74;70.99
25392;BME280;13329;48.402;11.718;2024-03-23T03:30:47;95458.94;;;9.73;71.03
25392;BME280;13329;48.402;11.718;2024-03-23T03:33:12;95455.78;;;9.56;71.39
25392;BME280;13329;48.402;11.718;2024-03-23T03:35:38;95452.88;;;9.52;72.34
25392;BME280;13329;48.402;11.718;2024-03-23T03:38:04;95448.41;;;9.48;71.89
25392;BME280;13329;48.402;11.718;2024-03-23T03:40:29;95445.50;;;9.49;72.22
25392;BME280;13329;48.402;11.718;2024-03-23T03:42:55;95444.97;;;9.47;72.16
25392;BME280;13329;48.402;11.718;2024-03-23T03:45:20;95439.97;;;9.46;72.82
25392;BME280;13329;48.402;11.718;2024-03-23T03:47:45;95436.81;;;9.59;72.17
25392;BME280;13329;48.402;11.718;2024-03-23T03:50:11;95443.25;;;8.55;75.76
25392;BME280;13329;48.402;11.718;2024-03-23T03:52:36;95435.13;;;8.09;78.68
25392;BME280;13329;48.402;11.718;2024-03-23T03:55:02;95425.19;;;8.16;78.86
25392;BME280;13329;48.402;11.718;2024-03-23T03:57:28;95422.63;;;8.31;79.41
25392;BME280;13329;48.402;11.718;2024-03-23T03:59:53;95418.84;;;8.64;76.85
25392;BME280;13329;48.402;11.718;2024-03-23T04:02:19;95416.03;;;9.12;75.19
25392;BME280;13329;48.402;11.718;2024-03-23T04:04:44;95404.97;;;9.35;74.37
25392;BME280;13329;48.402;11.718;2024-03-23T04:07:09;95403.38;;;9.60;73.28
25392;BME280;13329;48.402;11.718;2024-03-23T04:09:35;95402.56;;;9.74;72.59
25392;BME280;13329;48.402;11.718;2024-03-23T04:12:00;95391.78;;;9.50;72.95
25392;BME280;13329;48.402;11.718;2024-03-23T04:14:26;95389.94;;;9.61;72.23
25392;BME280;13329;48.402;11.718;2024-03-23T04:16:51;95399.72;;;9.35;72.95
25392;BME280;13329;48.402;11.718;2024-03-23T04:19:16;95401.22;;;9.67;72.32
25392;BME280;13329;48.402;11.718;2024-03-23T04:21:42;95387.03;;;9.73;71.49
25392;BME280;13329;48.402;11.718;2024-03-23T04:24:07;95386.00;;;9.59;71.86
25392;BME280;13329;48.402;11.718;2024-03-23T04:26:42;95375.69;;;9.77;70.91
25392;BME280;13329;48.402;11.718;2024-03-23T04:29:08;95378.56;;;9.81;70.35
25392;BME280;13329;48.402;11.718;2024-03-23T04:31:33;95374.84;;;9.97;69.59
25392;BME280;13329;48.402;11.718;2024-03-23T04:34:00;95376.69;;;9.97;70.25
25392;BME280;13329;48.402;11.718;2024-03-23T04:36:26;95379.03;;;10.03;69.21
25392;BME280;13329;48.402;11.718;2024-03-23T04:38:51;95368.75;;;10.02;70.43
25392;BME280;13329;48.402;11.718;2024-03-23T04:41:17;95367.97;;;10.01;70.22
25392;BME280;13329;48.402;11.718;2024-03-23T04:43:43;95357.97;;;9.93;70.23
25392;BME280;13329;48.402;11.718;2024-03-23T04:46:08;95345.72;;;10.23;69.50
25392;BME280;13329;48.402;11.718;2024-03-23T04:48:34;95335.22;;;10.18;69.41
25392;BME280;13329;48.402;11.718;2024-03-23T04:50:59;95340.47;;;10.23;68.72
25392;BME280;13329;48.402;11.718;2024-03-23T04:53:24;95345.22;;;10.21;69.36
25392;BME280;13329;48.402;11.718;2024-03-23T04:55:54;95338.72;;;9.98;69.87
25392;BME280;13329;48.402;11.718;2024-03-23T04:58:19;95333.41;;;10.08;70.11
25392;BME280;13329;48.402;11.718;2024-03-23T05:00:45;95330.38;;;10.40;68.74
25392;BME280;13329;48.402;11.718;2024-03-23T05:03:10;95322.63;;;10.59;68.01
25392;BME280;13329;48.402;11.718;2024-03-23T05:05:35;95323.75;;;10.82;66.67
25392;BME280;13329;48.402;11.718;2024-03-23T05:08:00;95324.06;;;10.81;66.83
25392;BME280;13329;48.402;11.718;2024-03-23T05:10:26;95314.13;;;11.01;65.74
25392;BME280;13329;48.402;11.718;2024-03-23T05:12:51;95309.41;;;10.98;66.44
25392;BME280;13329;48.402;11.718;2024-03-23T05:15:16;95313.19;;;9.93;71.29
25392;BME280;13329;48.402;11.718;2024-03-23T05:17:42;95301.84;;;9.98;71.81
25392;BME280;13329;48.402;11.718;2024-03-23T05:20:07;95304.81;;;9.76;73.56
25392;BME280;13329;48.402;11.718;2024-03-23T05:22:37;95308.31;;;9.51;74.73
25392;BME280;13329;48.402;11.718;2024-03-23T05:25:03;95299.56;;;9.71;74.47
25392;BME280;13329;48.402;11.718;2024-03-23T05:27:31;95295.38;;;9.65;74.41
25392;BME280;13329;48.402;11.718;2024-03-23T05:29:56;95288.25;;;9.65;74.85
25392;BME280;13329;48.402;11.718;2024-03-23T05:32:21;95291.94;;;9.64;73.98
25392;BME280;13329;48.402;11.718;2024-03-23T05:34:47;95299.81;;;9.74;72.92
25392;BME280;13329;48.402;11.718;2024-03-23T05:37:12;95299.84;;;9.69;72.98
25392;BME280;13329;48.402;11.718;2024-03-23T05:39:37;95292.06;;;9.98;71.56
25392;BME280;13329;48.402;11.718;2024-03-23T05:42:03;95298.19;;;9.89;72.16
25392;BME280;13329;48.402;11.718;2024-03-23T05:44:28;95295.47;;;10.04;71.67
25392;BME280;13329;48.402;11.718;2024-03-23T05:46:53;95284.41;;;10.51;69.87
25392;BME280;13329;48.402;11.718;2024-03-23T05:49:19;95297.25;;;10.63;68.79
25392;BME280;13329;48.402;11.718;2024-03-23T05:51:45;95293.28;;;10.66;69.67
25392;BME280;13329;48.402;11.718;2024-03-23T05:54:10;95284.00;;;11.08;67.66
25392;BME280;13329;48.402;11.718;2024-03-23T05:56:35;95286.16;;;10.66;67.63
25392;BME280;13329;48.402;11.718;2024-03-23T05:59:00;95291.34;;;10.42;68.86
25392;BME280;13329;48.402;11.718;2024-03-23T06:01:28;95277.03;;;9.99;71.38
25392;BME280;13329;48.402;11.718;2024-03-23T06:03:54;95266.63;;;10.23;72.28
25392;BME280;13329;48.402;11.718;2024-03-23T06:06:19;95258.03;;;10.51;71.46
25392;BME280;13329;48.402;11.718;2024-03-23T06:08:44;95250.88;;;10.57;71.89
25392;BME280;13329;48.402;11.718;2024-03-23T06:11:10;95235.72;;;10.73;70.22
25392;BME280;13329;48.402;11.718;2024-03-23T06:13:35;95227.41;;;10.56;70.31
25392;BME280;13329;48.402;11.718;2024-03-23T06:16:01;95230.34;;;10.49;69.91
25392;BME280;13329;48.402;11.718;2024-03-23T06:18:26;95234.72;;;10.69;69.60
25392;BME280;13329;48.402;11.718;2024-03-23T06:20:52;95233.59;;;10.75;69.48
25392;BME280;13329;48.402;11.718;2024-03-23T06:23:18;95228.31;;;10.75;69.80
25392;BME280;13329;48.402;11.718;2024-03-23T06:25:45;95221.09;;;10.86;69.86
25392;BME280;13329;48.402;11.718;2024-03-23T06:28:10;95221.56;;;10.93;68.92
25392;BME280;13329;48.402;11.718;2024-03-23T06:30:36;95211.22;;;10.96;68.90
25392;BME280;13329;48.402;11.718;2024-03-23T06:33:01;95212.84;;;11.21;68.73
25392;BME280;13329;48.402;11.718;2024-03-23T06:35:27;95209.00;;;11.09;68.82
25392;BME280;13329;48.402;11.718;2024-03-23T06:37:52;95207.09;;;11.14;68.84
25392;BME280;13329;48.402;11.718;2024-03-23T06:40:17;95190.63;;;11.46;67.75
25392;BME280;13329;48.402;11.718;2024-03-23T06:42:43;95189.00;;;11.50;68.44
25392;BME280;13329;48.402;11.718;2024-03-23T06:45:08;95190.84;;;11.69;68.46
25392;BME280;13329;48.402;11.718;2024-03-23T06:47:34;95192.28;;;11.85;67.41
25392;BME280;13329;48.402;11.718;2024-03-23T06:50:00;95178.91;;;11.95;67.16
25392;BME280;13329;48.402;11.718;2024-03-23T06:52:28;95183.97;;;12.11;67.22
25392;BME280;13329;48.402;11.718;2024-03-23T06:54:54;95177.97;;;12.24;66.12
25392;BME280;13329;48.402;11.718;2024-03-23T06:57:19;95179.31;;;12.40;66.05
25392;BME280;13329;48.402;11.718;2024-03-23T06:59:44;95180.59;;;12.75;65.04
25392;BME280;13329;48.402;11.718;2024-03-23T07:02:09;95180.63;;;12.89;63.14
25392;BME280;13329;48.402;11.718;2024-03-23T07:04:35;95174.38;;;13.26;63.71
25392;BME280;13329;48.402;11.718;2024-03-23T07:07:01;95172.13;;;13.33;61.70
25392;BME280;13329;48.402;11.718;2024-03-23T07:09:28;95175.53;;;13.20;61.97
25392;BME280;13329;48.402;11.718;2024-03-23T07:11:56;95174.00;;;13.33;61.90
25392;BME280;13329;48.402;11.718;2024-03-23T07:14:22;95166.25;;;13.23;62.02
25392;BME280;13329;48.402;11.718;2024-03-23T07:16:48;95164.19;;;13.33;62.92
25392;BME280;13329;48.402;11.718;2024-03-23T07:19:15;95161.66;;;13.42;62.87
25392;BME280;13329;48.402;11.718;2024-03-23T07:21:42;95159.88;;;13.51;63.25
25392;BME280;13329;48.402;11.718;2024-03-23T07:24:07;95156.50;;;13.59;63.24
25392;BME280;13329;48.402;11.718;2024-03-23T07:26:32;95165.75;;;13.48;64.33
25392;BME280;13329;48.402;11.718;2024-03-23T07:28:57;95174.78;;;13.47;65.52
25392;BME280;13329;48.402;11.718;2024-03-23T07:31:23;95192.03;;;13.31;66.61
25392;BME280;13329;48.402;11.718;2024-03-23T07:33:49;95185.44;;;13.15;67.09
25392;BME280;13329;48.402;11.718;2024-03-23T07:36:15;95190.44;;;13.02;67.33
25392;BME280;13329;48.402;11.718;2024-03-23T07:38:41;95186.97;;;12.88;70.35
25392;BME280;13329;48.402;11.718;2024-03-23T07:41:08;95199.56;;;12.64;72.07
25392;BME280;13329;48.402;11.718;2024-03-23T07:43:34;95212.03;;;12.44;74.26
25392;BME280;13329;48.402;11.718;2024-03-23T07:46:00;95230.78;;;12.48;74.41
25392;BME280;13329;48.402;11.718;2024-03-23T07:48:26;95219.34;;;12.52;74.61
25392;BME280;13329;48.402;11.718;2024-03-23T07:53:22;95235.94;;;12.39;77.96
25392;BME280;13329;48.402;11.718;2024-03-23T07:56:12;95227.66;;;12.27;76.51
25392;BME280;13329;48.402;11.718;2024-03-23T07:58:38;95243.47;;;12.13;79.95
25392;BME280;13329;48.402;11.718;2024-03-23T08:03:30;95283.09;;;11.94;83.06
25392;BME280;13329;48.402;11.718;2024-03-23T08:05:55;95313.06;;;12.09;86.29
25392;BME280;13329;48.402;11.718;2024-03-23T08:08:20;95323.69;;;11.55;88.55
25392;BME280;13329;48.402;11.718;2024-03-23T08:10:52;95352.59;;;11.13;91.11
25392;BME280;13329;48.402;11.718;2024-03-23T08:13:18;95349.22;;;10.63;94.58
25392;BME280;13329;48.402;11.718;2024-03-23T08:15:44;95346.28;;;10.30;97.16
25392;BME280;13329;48.402;11.718;2024-03-23T08:18:11;95352.81;;;10.38;97.99
25392;BME280;13329;48.402;11.718;2024-03-23T08:20:36;95378.97;;;10.14;97.80
25392;BME280;13329;48.402;11.718;2024-03-23T08:23:02;95379.56;;;10.00;95.27
25392;BME280;13329;48.402;11.718;2024-03-23T08:25:30;95394.34;;;9.86;96.77
25392;BME280;13329;48.402;11.718;2024-03-23T08:27:56;95397.56;;;9.73;98.12
25392;BME280;13329;48.402;11.718;2024-03-23T08:30:21;95409.69;;;9.69;98.58
25392;BME280;13329;48.402;11.718;2024-03-23T08:32:47;95424.44;;;9.60;100.00
25392;BME280;13329;48.402;11.718;2024-03-23T08:35:13;95429.69;;;9.65;100.00
25392;BME280;13329;48.402;11.718;2024-03-23T08:37:38;95443.91;;;9.43;100.00
25392;BME280;13329;48.402;11.718;2024-03-23T08:40:03;95443.91;;;9.28;100.00
25392;BME280;13329;48.402;11.718;2024-03-23T08:42:30;95438.09;;;9.72;100.00
25392;BME280;13329;48.402;11.718;2024-03-23T08:44:55;95445.50;;;9.75;100.00
25392;BME280;13329;48.402;11.718;2024-03-23T08:47:20;95452.34;;;9.45;100.00
25392;BME280;13329;48.402;11.718;2024-03-23T08:49:46;95444.19;;;9.47;100.00
25392;BME280;13329;48.402;11.718;2024-03-23T08:52:11;95444.97;;;9.63;100.00
25392;BME280;13329;48.402;11.718;2024-03-23T08:54:36;95448.41;;;9.48;100.00
25392;BME280;13329;48.402;11.718;2024-03-23T08:57:01;95452.34;;;9.25;100.00
25392;BME280;13329;48.402;11.718;2024-03-23T08:59:27;95446.81;;;9.27;100.00
25392;BME280;13329;48.402;11.718;2024-03-23T09:01:52;95442.34;;;9.37;100.00
25392;BME280;13329;48.402;11.718;2024-03-23T09:04:18;95459.47;;;9.35;100.00
25392;BME280;13329;48.402;11.718;2024-03-23T09:06:43;95465.53;;;9.50;100.00
25392;BME280;13329;48.402;11.718;2024-03-23T09:09:09;95457.06;;;9.48;100.00
25392;BME280;13329;48.402;11.718;2024-03-23T09:11:34;95463.94;;;9.44;98.89
25392;BME280;13329;48.402;11.718;2024-03-23T09:14:00;95476.56;;;9.42;98.60
25392;BME280;13329;48.402;11.718;2024-03-23T09:16:25;95474.47;;;9.49;99.22
25392;BME280;13329;48.402;11.718;2024-03-23T09:18:52;95490.22;;;9.19;97.48
25392;BME280;13329;48.402;11.718;2024-03-23T09:21:17;95459.19;;;9.16;98.13
25392;BME280;13329;48.402;11.718;2024-03-23T09:23:43;95490.50;;;9.22;97.79
25392;BME280;13329;48.402;11.718;2024-03-23T09:26:09;95492.06;;;9.03;95.78
25392;BME280;13329;48.402;11.718;2024-03-23T09:28:34;95488.66;;;9.08;92.95
25392;BME280;13329;48.402;11.718;2024-03-23T09:31:04;95498.59;;;8.95;92.89
25392;BME280;13329;48.402;11.718;2024-03-23T09:33:29;95489.41;;;8.98;93.11
25392;BME280;13329;48.402;11.718;2024-03-23T09:35:55;95503.38;;;9.09;91.53
25392;BME280;13329;48.402;11.718;2024-03-23T09:38:21;95506.53;;;9.06;90.39
25392;BME280;13329;48.402;11.718;2024-03-23T09:40:48;95506.25;;;9.02;90.50
25392;BME280;13329;48.402;11.718;2024-03-23T09:43:15;95502.84;;;9.07;88.31
25392;BME280;13329;48.402;11.718;2024-03-23T09:45:41;95502.31;;;9.10;89.19
25392;BME280;13329;48.402;11.718;2024-03-23T09:48:10;95502.06;;;9.06;89.00
25392;BME280;13329;48.402;11.718;2024-03-23T09:50:43;95509.69;;;9.03;88.16
25392;BME280;13329;48.402;11.718;2024-03-23T09:53:13;95506.53;;;9.06;89.32
25392;BME280;13329;48.402;11.718;2024-03-23T09:55:43;95511.03;;;9.20;89.21
25392;BME280;13329;48.402;11.718;2024-03-23T09:58:12;95509.50;;;9.30;88.63
25392;BME280;13329;48.402;11.718;2024-03-23T10:00:38;95518.19;;;9.35;88.89
25392;BME280;13329;48.402;11.718;2024-03-23T10:03:04;95517.63;;;9.23;84.78
25392;BME280;13329;48.402;11.718;2024-03-23T10:05:30;95530.78;;;9.28;83.95
25392;BME280;13329;48.402;11.718;2024-03-23T10:10:39;95537.09;;;9.22;82.29
25392;BME280;13329;48.402;11.718;2024-03-23T10:13:04;95537.59;;;9.09;81.51
25392;BME280;13329;48.402;11.718;2024-03-23T10:15:29;95538.13;;;9.06;83.98
25392;BME280;13329;48.402;11.718;2024-03-23T10:17:55;95540.19;;;9.04;82.56
25392;BME280;13329;48.402;11.718;2024-03-23T10:20:21;95534.19;;;9.18;84.92
25392;BME280;13329;48.402;11.718;2024-03-23T10:22:48;95537.25;;;8.85;84.30
25392;BME280;13329;48.402;11.718;2024-03-23T10:25:14;95529.66;;;8.93;84.95
25392;BME280;13329;48.402;11.718;2024-03-23T10:27:39;95523.59;;;8.93;87.33
25392;BME280;13329;48.402;11.718;2024-03-23T10:30:12;95537.06;;;9.02;87.70
25392;BME280;13329;48.402;11.718;2024-03-23T10:32:38;95532.34;;;9.19;89.13
25392;BME280;13329;48.402;11.718;2024-03-23T10:35:17;95532.09;;;9.10;89.33
25392;BME280;13329;48.402;11.718;2024-03-23T10:37:49;95552.84;;;9.02;88.42
25392;BME280;13329;48.402;11.718;2024-03-23T10:40:16;95545.47;;;9.09;89.22
25392;BME280;13329;48.402;11.718;2024-03-23T10:42:43;95549.44;;;9.11;90.45
25392;BME280;13329;48.402;11.718;2024-03-23T10:45:09;95545.81;;;9.38;86.68
25392;BME280;13329;48.402;11.718;2024-03-23T10:47:35;95561.09;;;9.46;84.45
25392;BME280;13329;48.402;11.718;2024-03-23T10:50:03;95566.66;;;9.70;83.35
25392;BME280;13329;48.402;11.718;2024-03-23T10:52:28;95566.66;;;9.44;82.93
25392;BME280;13329;48.402;11.718;2024-03-23T10:54:55;95580.59;;;9.40;82.00
25392;BME280;13329;48.402;11.718;2024-03-23T10:57:27;95590.88;;;9.57;81.09
25392;BME280;13329;48.402;11.718;2024-03-23T10:59:55;95581.38;;;9.35;79.55
25392;BME280;13329;48.402;11.718;2024-03-23T11:02:21;95600.03;;;9.29;80.48
25392;BME280;13329;48.402;11.718;2024-03-23T11:04:47;95603.38;;;9.09;79.92
25392;BME280;13329;48.402;11.718;2024-03-23T11:07:31;95611.19;;;8.88;81.43
25392;BME280;13329;48.402;11.718;2024-03-23T11:09:58;95608.59;;;8.93;80.67
25392;BME280;13329;48.402;11.718;2024-03-23T11:15:11;95610.50;;;9.13;79.21
25392;BME280;13329;48.402;11.718;2024-03-23T11:17:36;95619.22;;;9.24;78.46
25392;BME280;13329;48.402;11.718;2024-03-23T11:20:03;95636.34;;;9.21;78.57
25392;BME280;13329;48.402;11.718;2024-03-23T11:22:46;95632.31;;;9.09;77.20
25392;BME280;13329;48.402;11.718;2024-03-23T11:25:21;95647.88;;;9.10;78.63
25392;BME280;13329;48.402;11.718;2024-03-23T11:27:48;95644.97;;;9.07;74.86
25392;BME280;13329;48.402;11.718;2024-03-23T11:32:48;95636.97;;;8.86;72.93
25392;BME280;13329;48.402;11.718;2024-03-23T11:35:30;95651.97;;;8.91;71.96
25392;BME280;13329;48.402;11.718;2024-03-23T11:38:15;95642.94;;;9.29;70.57
25392;BME280;13329;48.402;11.718;2024-03-23T11:40:44;95634.56;;;9.47;68.43
25392;BME280;13329;48.402;11.718;2024-03-23T11:43:13;95634.66;;;9.73;68.03
25392;BME280;13329;48.402;11.718;2024-03-23T11:45:42;95628.50;;;9.37;67.44
25392;BME280;13329;48.402;11.718;2024-03-23T11:48:09;95628.50;;;9.42;67.97
25392;BME280;13329;48.402;11.718;2024-03-23T11:50:38;95644.66;;;9.86;65.69
25392;BME280;13329;48.402;11.718;2024-03-23T11:53:12;95636.53;;;10.03;65.56
25392;BME280;13329;48.402;11.718;2024-03-23T11:55:45;95647.34;;;10.58;63.32
25392;BME280;13329;48.402;11.718;2024-03-23T11:58:11;95637.31;;;10.75;63.02
25392;BME280;13329;48.402;11.718;2024-03-23T12:00:36;95636.06;;;11.32;60.34
25392;BME280;13329;48.402;11.718;2024-03-23T12:03:02;95632.97;;;11.74;58.54
25392;BME280;13329;48.402;11.718;2024-03-23T12:05:28;95611.22;;;11.88;57.25
25392;BME280;13329;48.402;11.718;2024-03-23T12:07:55;95633.06;;;10.89;59.65
25392;BME280;13329;48.402;11.718;2024-03-23T12:10:20;95633.66;;;11.41;59.30
25392;BME280;13329;48.402;11.718;2024-03-23T12:12:45;95617.34;;;11.23;59.85
25392;BME280;13329;48.402;11.718;2024-03-23T12:15:11;95627.13;;;11.23;60.57
25392;BME280;13329;48.402;11.718;2024-03-23T12:17:38;95626.19;;;10.88;60.63
25392;BME280;13329;48.402;11.718;2024-03-23T12:20:04;95643.13;;;10.62;61.41
25392;BME280;13329;48.402;11.718;2024-03-23T12:22:29;95648.69;;;10.40;61.29
25392;BME280;13329;48.402;11.718;2024-03-23T12:24:55;95632.06;;;10.34;60.61
25392;BME280;13329;48.402;11.718;2024-03-23T12:27:20;95616.75;;;9.95;60.89
25392;BME280;13329;48.402;11.718;2024-03-23T12:29:46;95612.53;;;9.84;61.13
25392;BME280;13329;48.402;11.718;2024-03-23T12:32:12;95639.66;;;9.80;60.81
25392;BME280;13329;48.402;11.718;2024-03-23T12:34:38;95634.09;;;9.71;60.68
25392;BME280;13329;48.402;11.718;2024-03-23T12:37:04;95635.19;;;9.85;60.51
25392;BME280;13329;48.402;11.718;2024-03-23T12:39:29;95619.78;;;9.26;60.61
25392;BME280;13329;48.402;11.718;2024-03-23T12:41:54;95619.81;;;9.41;59.77
25392;BME280;13329;48.402;11.718;2024-03-23T12:44:20;95604.34;;;9.75;59.75
25392;BME280;13329;48.402;11.718;2024-03-23T12:46:46;95599.34;;;9.89;59.99
25392;BME280;13329;48.402;11.718;2024-03-23T12:49:11;95619.13;;;10.12;59.88
25392;BME280;13329;48.402;11.718;2024-03-23T12:51:37;95619.38;;;9.95;57.39
25392;BME280;13329;48.402;11.718;2024-03-23T12:54:02;95622.59;;;10.28;58.55
25392;BME280;13329;48.402;11.718;2024-03-23T12:56:28;95623.91;;;10.25;57.08
25392;BME280;13329;48.402;11.718;2024-03-23T12:58:54;95622.00;;;9.80;58.11
25392;BME280;13329;48.402;11.718;2024-03-23T13:01:21;95625.69;;;9.69;58.09
25392;BME280;13329;48.402;11.718;2024-03-23T13:03:47;95619.34;;;9.65;58.81
25392;BME280;13329;48.402;11.718;2024-03-23T13:06:12;95619.19;;;9.14;58.53
25392;BME280;13329;48.402;11.718;2024-03-23T13:08:38;95625.81;;;9.21;59.24
25392;BME280;13329;48.402;11.718;2024-03-23T13:11:04;95621.38;;;9.32;59.39
25392;BME280;13329;48.402;11.718;2024-03-23T13:13:29;95636.69;;;9.50;58.53
25392;BME280;13329;48.402;11.718;2024-03-23T13:15:54;95637.25;;;9.63;58.88
25392;BME280;13329;48.402;11.718;2024-03-23T13:18:19;95630.38;;;9.46;57.43
25392;BME280;13329;48.402;11.718;2024-03-23T13:20:45;95624.97;;;9.06;59.74
25392;BME280;13329;48.402;11.718;2024-03-23T13:23:10;95626.56;;;9.12;60.09
25392;BME280;13329;48.402;11.718;2024-03-23T13:25:35;95625.63;;;8.86;59.61
25392;BME280;13329;48.402;11.718;2024-03-23T13:28:02;95624.81;;;8.80;60.47
25392;BME280;13329;48.402;11.718;2024-03-23T13:30:27;95622.78;;;8.87;60.68
25392;BME280;13329;48.402;11.718;2024-03-23T13:32:53;95622.84;;;9.03;61.52
25392;BME280;13329;48.402;11.718;2024-03-23T13:35:18;95623.41;;;9.15;60.71
25392;BME280;13329;48.402;11.718;2024-03-23T13:37:44;95622.94;;;9.33;59.98
25392;BME280;13329;48.402;11.718;2024-03-23T13:40:10;95626.06;;;9.20;60.01
25392;BME280;13329;48.402;11.718;2024-03-23T13:42:35;95642.09;;;9.18;61.25
25392;BME280;13329;48.402;11.718;2024-03-23T13:45:00;95639.06;;;9.47;60.46
25392;BME280;13329;48.402;11.718;2024-03-23T13:47:25;95642.34;;;9.07;60.87
25392;BME280;13329;48.402;11.718;2024-03-23T13:49:51;95655.66;;;8.47;62.79
25392;BME280;13329;48.402;11.718;2024-03-23T13:52:16;95652.06;;;8.27;64.56
25392;BME280;13329;48.402;11.718;2024-03-23T13:54:43;95657.25;;;7.89;65.14
25392;BME280;13329;48.402;11.718;2024-03-23T13:57:11;95660.72;;;7.68;68.56